Time,TemperatureF,DewpointF,PressureIn,WindDirection,WindDirectionDegrees,WindSpeedMPH,WindSpeedGustMPH,Humidity,HourlyPrecipIn,Conditions,Clouds,dailyrainin,SolarRadiationWatts/m^2,SoftwareType,DateUTC
2013-09-12 00:12:00,67.0,65.0,30.12,NW,307,4.0,7.0,90,-99.99,,,-99.99,0.000000,,2013-09-12 06:12:00,
2013-09-12 00:42:00,68.0,64.0,30.12,NW,313,1.0,3.0,86,-99.99,,,-99.99,0.000000,,2013-09-12 06:42:00,
2013-09-12 00:52:00,68.0,64.0,30.12,NW,313,1.0,3.0,86,-99.99,,,-99.99,0.000000,,2013-09-12 06:52:00,
2013-09-12 01:02:00,68.0,64.0,30.12,NW,313,1.0,3.0,86,-99.99,,,-99.99,0.000000,,2013-09-12 07:02:00,
2013-09-12 01:43:00,68.0,65.0,30.11,NNW,337,0.0,1.0,88,-99.99,,,-99.99,0.000000,,2013-09-12 07:43:00,
2013-09-12 02:42:00,68.0,65.0,30.10,West,276,2.0,4.0,90,-99.99,,,-99.99,0.000000,,2013-09-12 08:42:00,
2013-09-12 03:12:00,68.0,66.0,30.10,SSW,204,1.0,3.0,92,-99.99,,,-99.99,0.000000,,2013-09-12 09:12:00,
2013-09-12 03:43:00,68.0,65.0,30.09,SSE,160,4.0,8.0,92,-99.99,,,-99.99,0.000000,,2013-09-12 09:43:00,
2013-09-12 04:43:00,66.0,65.0,30.09,SE,142,6.0,11.0,95,-99.99,,,-99.99,0.000000,,2013-09-12 10:43:00,
2013-09-12 04:53:00,66.0,65.0,30.09,SE,142,6.0,11.0,95,-99.99,,,-99.99,0.000000,,2013-09-12 10:53:00,
2013-09-12 05:11:00,65.0,65.0,30.09,SE,140,6.0,10.0,98,-99.99,,,-99.99,0.000000,,2013-09-12 11:11:00,
2013-09-12 05:22:00,65.0,65.0,30.09,SE,140,6.0,10.0,98,-99.99,,,-99.99,0.000000,,2013-09-12 11:22:00,
2013-09-12 05:42:00,65.0,65.0,30.09,SSE,154,3.0,6.0,98,-99.99,,,-99.99,0.000000,,2013-09-12 11:42:00,
2013-09-12 07:42:00,65.0,64.0,30.12,ESE,123,3.0,6.0,96,-99.99,,,-99.99,5.580000,,2013-09-12 13:42:00,
2013-09-12 08:11:00,65.0,64.0,30.12,East,97,1.0,3.0,96,-99.99,,,-99.99,7.670000,,2013-09-12 14:11:00,
2013-09-12 08:42:00,65.0,64.0,30.12,East,87,4.0,6.0,96,-99.99,,,-99.99,14.640000,,2013-09-12 14:42:00,
2013-09-12 09:11:00,65.0,64.0,30.13,SE,135,3.0,5.0,96,-99.99,,,-99.99,13.250000,,2013-09-12 15:11:00,
2013-09-12 09:43:00,65.0,64.0,30.14,ESE,107,6.0,8.0,97,-99.99,,,-99.99,21.620001,,2013-09-12 15:43:00,
2013-09-12 09:54:00,65.0,64.0,30.15,ESE,120,8.0,13.0,97,-99.99,,,-99.99,17.430000,,2013-09-12 15:54:00,
2013-09-12 10:03:00,65.0,64.0,30.15,ESE,120,8.0,13.0,97,-99.99,,,-99.99,17.430000,,2013-09-12 16:03:00,
2013-09-12 10:13:00,65.0,64.0,30.15,ESE,120,8.0,13.0,97,-99.99,,,-99.99,17.430000,,2013-09-12 16:13:00,
2013-09-12 10:23:00,65.0,64.0,30.14,ESE,111,8.0,11.0,96,-99.99,,,-99.99,29.990000,,2013-09-12 16:23:00,
2013-09-12 10:43:00,65.0,64.0,30.15,ESE,107,7.0,10.0,96,-99.99,,,-99.99,37.660000,,2013-09-12 16:43:00,
2013-09-12 10:53:00,65.0,64.0,30.15,ESE,107,7.0,10.0,96,-99.99,,,-99.99,37.660000,,2013-09-12 16:53:00,
2013-09-12 11:03:00,65.0,64.0,30.15,ESE,107,7.0,10.0,96,-99.99,,,-99.99,37.660000,,2013-09-12 17:03:00,
2013-09-12 11:42:00,64.0,63.0,30.15,ESE,123,6.0,8.0,96,-99.99,,,-99.99,29.290001,,2013-09-12 17:42:00,
2013-09-12 11:54:00,64.0,63.0,30.15,ESE,123,6.0,8.0,96,-99.99,,,-99.99,29.290001,,2013-09-12 17:54:00,
2013-09-12 12:02:00,64.0,63.0,30.15,ESE,123,6.0,8.0,96,-99.99,,,-99.99,29.290001,,2013-09-12 18:02:00,
2013-09-12 12:22:00,65.0,63.0,30.15,East,87,7.0,11.0,94,-99.99,,,-99.99,20.920000,,2013-09-12 18:22:00,
2013-09-12 12:42:00,64.0,63.0,30.15,East,99,7.0,10.0,94,-99.99,,,-99.99,31.379999,,2013-09-12 18:42:00,
2013-09-12 13:42:00,65.0,62.0,30.14,NNE,32,5.0,6.0,91,-99.99,,,-99.99,27.200001,,2013-09-12 19:42:00,
2013-09-12 13:52:00,65.0,63.0,30.13,NNE,24,4.0,6.0,93,-99.99,,,-99.99,13.250000,,2013-09-12 19:52:00,
2013-09-12 14:02:00,65.0,63.0,30.13,NNE,24,4.0,6.0,93,-99.99,,,-99.99,13.250000,,2013-09-12 20:02:00,
2013-09-12 14:42:00,65.0,63.0,30.12,East,81,5.0,7.0,93,-99.99,,,-99.99,29.290001,,2013-09-12 20:42:00,
2013-09-12 14:52:00,65.0,63.0,30.12,East,81,5.0,7.0,93,-99.99,,,-99.99,29.290001,,2013-09-12 20:52:00,
2013-09-12 15:02:00,65.0,63.0,30.12,East,81,5.0,7.0,93,-99.99,,,-99.99,29.290001,,2013-09-12 21:02:00,
2013-09-12 15:43:00,65.0,64.0,30.10,East,85,10.0,15.0,97,-99.99,,,-99.99,94.839996,,2013-09-12 21:43:00,
2013-09-12 15:54:00,65.0,64.0,30.10,East,85,10.0,15.0,97,-99.99,,,-99.99,94.839996,,2013-09-12 21:54:00,
2013-09-12 16:04:00,65.0,64.0,30.10,East,85,10.0,15.0,97,-99.99,,,-99.99,94.839996,,2013-09-12 22:04:00,
2013-09-12 16:43:00,66.0,64.0,30.10,SE,127,7.0,12.0,93,-99.99,,,-99.99,163.179993,,2013-09-12 22:43:00,
2013-09-12 16:54:00,67.0,63.0,30.09,East,84,6.0,8.0,89,-99.99,,,-99.99,162.479996,,2013-09-12 22:54:00,
2013-09-12 17:12:00,68.0,63.0,30.08,East,82,9.0,15.0,83,-99.99,,,-99.99,385.630005,,2013-09-12 23:12:00,
2013-09-12 18:22:00,69.0,60.0,30.09,SE,124,7.0,12.0,73,-99.99,,,-99.99,220.360001,,2013-09-13 00:22:00,
2013-09-12 18:42:00,69.0,60.0,30.09,ESE,112,8.0,14.0,74,-99.99,,,-99.99,121.339996,,2013-09-13 00:42:00,
2013-09-12 19:42:00,67.0,61.0,30.10,SE,127,8.0,16.0,81,-99.99,,,-99.99,9.760000,,2013-09-13 01:42:00,
2013-09-12 20:43:00,67.0,63.0,30.11,ESE,109,4.0,8.0,86,-99.99,,,-99.99,0.000000,,2013-09-13 02:43:00,
2013-09-12 20:53:00,67.0,63.0,30.11,ESE,109,4.0,8.0,86,-99.99,,,-99.99,0.000000,,2013-09-13 02:53:00,
2013-09-12 21:02:00,67.0,63.0,30.11,ESE,109,4.0,8.0,86,-99.99,,,-99.99,0.000000,,2013-09-13 03:02:00,
2013-09-12 21:44:00,67.0,63.0,30.12,ENE,66,1.0,3.0,87,-99.99,,,-99.99,0.000000,,2013-09-13 03:44:00,
2013-09-12 22:14:00,67.0,63.0,30.12,North,3,2.0,3.0,87,-99.99,,,-99.99,0.000000,,2013-09-13 04:14:00,
2013-09-12 22:44:00,65.0,64.0,30.12,NW,311,5.0,8.0,96,-99.99,,,-99.99,0.000000,,2013-09-13 04:44:00,
2013-09-12 22:54:00,65.0,64.0,30.12,WNW,294,4.0,5.0,96,-99.99,,,-99.99,0.000000,,2013-09-13 04:54:00,
2013-09-12 23:03:00,65.0,64.0,30.12,WNW,294,4.0,5.0,96,-99.99,,,-99.99,0.000000,,2013-09-13 05:03:00,
2013-09-12 23:13:00,65.0,64.0,30.12,WNW,294,4.0,5.0,96,-99.99,,,-99.99,0.000000,,2013-09-13 05:13:00,
2013-09-12 23:43:00,65.0,64.0,30.12,WNW,283,5.0,7.0,96,-99.99,,,-99.99,0.000000,,2013-09-13 05:43:00,